Time;durP1;ratioP1;P1;durP2;ratioP2;P2;SDS_P1;SDS_P2;PMS_P1;PMS_P2;Temp;Humidity;BMP_temperature;BMP_pressure;BME280_temperature;BME280_humidity;BME280_pressure;Samples;Min_cycle;Max_cycle;Signal;HPM_P1;HPM_P2
2022/03/15 00:02:37;;;;;;;4.53;2.17;;;10.20;42.70;;;;;;2237680;57;20939;-65
2022/03/15 00:08:44;;;;;;;3.70;1.60;;;10.20;42.90;;;;;;2141355;59;21069;-64
2022/03/15 00:11:34;;;;;;;5.20;2.20;;;10.20;42.80;;;;;;2163017;59;21342;-64
2022/03/15 00:14:19;;;;;;;3.78;1.55;;;10.20;42.80;;;;;;2201571;58;20991;-65
2022/03/15 00:19:31;;;;;;;4.18;1.77;;;10.20;43.00;;;;;;2224668;56;21031;-64
2022/03/15 00:22:04;;;;;;;5.40;1.62;;;10.20;43.30;;;;;;2236572;56;21023;-66
2022/03/15 00:24:40;;;;;;;;;;;;;;;;;;;;;
2022/03/15 00:27:21;;;;;;;3.08;1.33;;;10.20;42.90;;;;;;2248484;56;21115;-65
2022/03/15 00:30:18;;;;;;;3.78;1.33;;;10.20;43.00;;;;;;2260815;55;20965;-64
2022/03/15 00:33:04;;;;;;;3.70;1.17;;;10.20;43.60;;;;;;2243671;57;20970;-64
2022/03/15 00:35:40;;;;;;;3.15;1.10;;;10.20;43.20;;;;;;2239128;56;21042;-64
2022/03/15 00:38:10;;;;;;;3.15;1.08;;;10.20;43.20;;;;;;2238577;55;21103;-66
2022/03/15 00:40:37;;;;;;;2.50;0.82;;;10.20;43.40;;;;;;2238129;56;21830;-63
2022/03/15 00:43:06;;;;;;;3.12;0.95;;;10.20;43.40;;;;;;2236898;56;20982;-64
2022/03/15 00:46:33;;;;;;;1.95;0.70;;;10.20;43.50;;;;;;2301804;55;21210;-64
2022/03/15 00:49:09;;;;;;;2.37;0.93;;;10.20;44.20;;;;;;2257625;56;21346;-65
2022/03/15 00:51:39;;;;;;;2.67;1.00;;;10.20;43.50;;;;;;2254183;57;21834;-65
2022/03/15 00:54:29;;;;;;;3.85;1.10;;;10.20;43.50;;;;;;2240134;56;20999;-64
2022/03/15 00:57:01;;;;;;;1.95;0.90;;;10.30;44.00;;;;;;2248718;56;20946;-64
2022/03/15 01:05:53;;;;;;;4.80;1.25;;;10.30;43.70;;;;;;2255071;55;20964;-65
2022/03/15 01:08:58;;;;;;;3.45;1.10;;;10.30;43.70;;;;;;2223410;56;20983;-65
2022/03/15 01:50:39;;;;;;;2.62;1.12;;;10.30;44.10;;;;;;2257504;57;21058;-64
2022/03/15 01:53:17;;;;;;;3.22;1.40;;;10.30;43.30;;;;;;2255661;57;21006;-66
2022/03/15 01:55:45;;;;;;;4.07;1.70;;;10.20;42.90;;;;;;2256101;55;21057;-65
2022/03/15 01:58:18;;;;;;;4.93;2.35;;;10.20;43.30;;;;;;2244960;56;20983;-66
2022/03/15 02:04:15;;;;;;;6.05;2.90;;;10.20;44.20;;;;;;2236416;56;21059;-64
2022/03/15 02:06:42;;;;;;;6.90;3.30;;;10.20;44.10;;;;;;2246385;56;21091;-66
2022/03/15 02:09:09;;;;;;;5.70;2.85;;;10.20;44.00;;;;;;2251170;56;20993;-63
2022/03/15 02:15:40;;;;;;;6.57;3.10;;;10.20;44.60;;;;;;2256119;57;21018;-64
2022/03/15 02:18:07;;;;;;;6.65;3.05;;;10.20;44.30;;;;;;2255274;57;21018;-64
2022/03/15 02:20:40;;;;;;;5.85;2.92;;;10.20;44.20;;;;;;2257281;57;21043;-66
2022/03/15 02:23:16;;;;;;;6.40;3.37;;;10.20;44.30;;;;;;2297572;55;21103;-64
2022/03/15 02:25:58;;;;;;;6.62;2.90;;;10.20;44.40;;;;;;2248219;56;21011;-66
2022/03/15 02:28:35;;;;;;;5.32;2.53;;;10.30;44.80;;;;;;2258122;56;21498;-64
2022/03/15 02:31:02;;;;;;;7.28;3.00;;;10.20;44.40;;;;;;2255715;57;21062;-63
2022/03/15 02:33:35;;;;;;;5.78;2.40;;;10.20;44.40;;;;;;2310514;55;21899;-65
2022/03/15 02:36:05;;;;;;;5.18;2.37;;;10.20;44.50;;;;;;2243498;56;21137;-65
2022/03/15 02:39:12;;;;;;;6.72;2.60;;;10.20;44.50;;;;;;2254627;56;21014;-63
2022/03/15 02:41:38;;;;;;;4.45;2.22;;;10.20;45.00;;;;;;2260202;55;21002;-64
2022/03/15 02:51:10;;;;;;;5.35;2.10;;;10.20;45.00;;;;;;2266756;55;21530;-65
2022/03/15 03:29:31;;;;;;;4.97;2.28;;;10.20;44.60;;;;;;2251042;57;21030;-64
2022/03/15 03:33:06;;;;;;;3.45;1.17;;;10.20;44.40;;;;;;2342981;52;26391;-65
2022/03/15 03:35:53;;;;;;;3.95;1.30;;;10.10;43.90;;;;;;2354766;53;20937;-65
2022/03/15 03:38:26;;;;;;;3.80;1.45;;;10.10;44.50;;;;;;2357040;54;20948;-65
2022/03/15 03:40:56;;;;;;;4.47;1.55;;;10.10;44.40;;;;;;2355866;53;20992;-66
2022/03/15 03:50:03;;;;;;;3.70;1.83;;;10.00;45.10;;;;;;2490111;52;20952;-63
2022/03/15 03:52:33;;;;;;;5.18;1.95;;;10.00;44.80;;;;;;2353879;52;21062;-65
2022/03/15 03:55:00;;;;;;;4.15;1.80;;;10.00;45.00;;;;;;2339878;53;21019;-65
2022/03/15 03:57:37;;;;;;;;;;;;;;;;;;;;;
2022/03/15 04:00:39;;;;;;;5.87;1.87;;;10.00;45.10;;;;;;2390200;52;21744;-65
2022/03/15 04:03:06;;;;;;;3.33;1.50;;;10.10;45.10;;;;;;2369784;53;20942;-65
2022/03/15 04:13:17;;;;;;;3.17;1.55;;;10.20;45.70;;;;;;2381670;52;21846;-65
2022/03/15 04:16:22;;;;;;;3.95;1.77;;;10.10;45.20;;;;;;2357977;53;21283;-64
2022/03/15 04:18:54;;;;;;;4.87;2.00;;;10.20;45.80;;;;;;2389363;52;21380;-65
2022/03/15 04:53:57;;;;;;;5.75;2.08;;;10.20;45.40;;;;;;2371977;52;20966;-64
2022/03/15 05:00:25;;;;;;;4.18;1.75;;;10.20;45.50;;;;;;2289160;56;21034;-64
2022/03/15 05:03:27;;;;;;;6.57;2.47;;;10.20;45.20;;;;;;2215754;56;21607;-65
2022/03/15 05:06:02;;;;;;;12.15;3.58;;;10.20;45.50;;;;;;2215515;57;21559;-65
2022/03/15 05:08:34;;;;;;;9.50;3.50;;;10.20;45.80;;;;;;2275392;55;21001;-65
2022/03/15 05:11:21;;;;;;;8.35;3.35;;;10.20;45.80;;;;;;2254179;56;21800;-63
2022/03/15 05:13:53;;;;;;;7.15;2.70;;;10.20;45.90;;;;;;2237045;56;21031;-65
2022/03/15 05:16:41;;;;;;;5.18;2.40;;;10.30;46.10;;;;;;2215150;56;21038;-64
2022/03/15 05:57:46;;;;;;;7.10;2.65;;;10.30;46.40;;;;;;2175696;57;20981;-64
2022/03/15 06:00:20;;;;;;;4.30;0.70;;;10.90;46.20;;;;;;2173722;59;21161;-64
2022/03/15 06:03:01;;;;;;;2.65;0.93;;;11.00;46.80;;;;;;2193818;56;21145;-65
2022/03/15 06:05:31;;;;;;;3.67;1.52;;;11.00;46.70;;;;;;2185211;58;21027;-65
2022/03/15 06:08:23;;;;;;;3.72;1.30;;;11.10;46.70;;;;;;2218114;57;21123;-65
2022/03/15 06:11:39;;;;;;;2.87;1.10;;;11.20;47.40;;;;;;2224017;57;21002;-66
2022/03/15 06:14:10;;;;;;;2.08;0.93;;;11.20;47.50;;;;;;2197813;57;21046;-65
2022/03/15 06:18:35;;;;;;;3.87;1.30;;;11.30;47.30;;;;;;2200310;57;21041;-63
2022/03/15 06:21:17;;;;;;;2.58;0.80;;;11.40;47.80;;;;;;2198867;60;21166;-63
2022/03/15 06:23:49;;;;;;;3.25;1.25;;;11.50;47.30;;;;;;2205368;57;21064;-65
2022/03/15 06:27:00;;;;;;;4.15;0.85;;;11.60;47.40;;;;;;2227982;57;21050;-65
2022/03/15 06:29:30;;;;;;;2.45;0.80;;;11.60;47.30;;;;;;2208556;57;21018;-65
2022/03/15 06:32:19;;;;;;;3.65;1.10;;;11.70;47.40;;;;;;2243993;57;21018;-65
2022/03/15 06:44:49;;;;;;;3.45;1.00;;;11.70;47.40;;;;;;2191412;58;21600;-64
2022/03/15 06:47:17;;;;;;;1.87;0.70;;;12.00;47.40;;;;;;2359282;56;20972;-65
2022/03/15 06:51:36;;;;;;;2.95;0.80;;;12.10;47.10;;;;;;2267809;56;21020;-64
2022/03/15 06:54:32;;;;;;;3.40;1.10;;;12.10;48.60;;;;;;2257490;56;20958;-64
2022/03/15 06:57:02;;;;;;;2.80;1.10;;;12.20;47.80;;;;;;2224531;57;20996;-65
2022/03/15 06:59:34;;;;;;;2.58;0.90;;;12.20;47.70;;;;;;2335691;56;21410;-65
2022/03/15 07:02:19;;;;;;;3.40;1.40;;;12.10;47.60;;;;;;2225702;57;21636;-63
2022/03/15 07:06:19;;;;;;;2.17;1.00;;;12.20;48.20;;;;;;2221644;57;21054;-64
2022/03/15 07:12:19;;;;;;;2.87;0.80;;;12.30;47.80;;;;;;2248958;55;21079;-66
2022/03/15 07:14:47;;;;;;;2.40;0.90;;;12.30;47.90;;;;;;2222093;57;21044;-64
2022/03/15 07:17:22;;;;;;;3.17;1.10;;;12.30;47.90;;;;;;2240962;56;20959;-66
2022/03/15 07:19:52;;;;;;;2.70;1.10;;;12.30;48.00;;;;;;2228506;56;21431;-65
2022/03/15 07:22:25;;;;;;;3.50;1.40;;;12.40;48.30;;;;;;2226848;57;20984;-64
2022/03/15 07:24:52;;;;;;;3.22;1.40;;;12.40;48.30;;;;;;2224049;56;21077;-64
2022/03/15 07:27:25;;;;;;;5.15;1.27;;;12.40;48.30;;;;;;2224191;56;21019;-64
2022/03/15 07:30:02;;;;;;;4.90;1.23;;;12.40;48.30;;;;;;2229038;57;21019;-65
2022/03/15 07:33:14;;;;;;;6.37;1.17;;;12.40;48.40;;;;;;2283427;56;20951;-63
2022/03/15 07:35:53;;;;;;;2.42;0.95;;;12.40;48.90;;;;;;2197360;57;20966;-64
2022/03/15 07:38:26;;;;;;;4.22;1.25;;;12.50;48.40;;;;;;2212059;56;20985;-64
2022/03/15 07:40:58;;;;;;;3.08;1.10;;;12.50;48.60;;;;;;2221972;57;21020;-63
2022/03/15 07:43:44;;;;;;;3.90;1.50;;;12.50;48.70;;;;;;2210054;56;20988;-64
2022/03/15 07:50:01;;;;;;;2.65;1.05;;;12.50;49.10;;;;;;2243453;56;21059;-64
2022/03/15 07:54:08;;;;;;;1.83;0.77;;;12.60;48.70;;;;;;2208963;57;20978;-64
2022/03/15 07:57:20;;;;;;;3.05;1.27;;;12.60;48.70;;;;;;2212292;56;21079;-64
2022/03/15 08:32:52;;;;;;;3.20;1.17;;;12.90;47.90;;;;;;2255286;56;21037;-64
2022/03/15 08:35:58;;;;;;;2.90;1.25;;;12.90;48.30;;;;;;2219700;57;20975;-65
2022/03/15 08:38:26;;;;;;;2.12;0.88;;;12.90;48.60;;;;;;2236717;57;20987;-66
2022/03/15 08:41:20;;;;;;;2.92;1.12;;;12.90;48.30;;;;;;2201427;58;21013;-64
2022/03/15 08:44:52;;;;;;;2.85;1.20;;;13.00;48.60;;;;;;2231461;57;21061;-65
2022/03/15 08:47:37;;;;;;;4.57;1.40;;;13.00;48.80;;;;;;2234560;56;22006;-66
2022/03/15 08:51:00;;;;;;;3.05;1.37;;;13.10;48.80;;;;;;2226190;57;21001;-66
2022/03/15 08:53:32;;;;;;;3.05;1.08;;;13.20;48.90;;;;;;2168397;58;21012;-65
2022/03/15 08:56:31;;;;;;;3.40;1.15;;;13.30;48.70;;;;;;2230048;57;20971;-64
2022/03/15 08:58:58;;;;;;;;;;;13.30;48.70;;;;;;2211703;58;21098;-64
2022/03/15 09:01:29;;;;;;;2.60;1.35;;;13.40;48.90;;;;;;2202701;57;20142;-64
2022/03/15 09:04:33;;;;;;;5.07;1.20;;;13.50;48.60;;;;;;2240259;56;21088;-65
2022/03/15 09:07:21;;;;;;;3.17;1.12;;;13.50;48.60;;;;;;2231583;56;21002;-64
2022/03/15 09:10:08;;;;;;;3.08;1.10;;;13.60;48.60;;;;;;2125560;60;22447;-65
2022/03/15 09:12:47;;;;;;;2.85;1.17;;;13.70;48.60;;;;;;2209705;57;21061;-63
2022/03/15 09:15:20;;;;;;;3.95;1.10;;;13.70;48.70;;;;;;2225814;56;21011;-64
2022/03/15 09:18:21;;;;;;;;;;;;;;;;;;;;;
2022/03/15 09:24:35;;;;;;;2.65;1.00;;;13.80;48.80;;;;;;2313261;56;21472;-64
2022/03/15 09:27:02;;;;;;;3.50;1.25;;;13.80;48.60;;;;;;2221616;57;20990;-65
2022/03/15 09:36:53;;;;;;;2.70;1.27;;;14.00;48.90;;;;;;2232188;56;21094;-66
2022/03/15 09:39:23;;;;;;;4.72;1.52;;;14.00;48.60;;;;;;2236881;56;21025;-65
2022/03/15 09:41:59;;;;;;;5.15;1.85;;;14.00;48.60;;;;;;2230552;57;21040;-65
2022/03/15 09:48:11;;;;;;;4.25;1.77;;;14.00;48.90;;;;;;2258612;56;21910;-66
2022/03/15 09:51:09;;;;;;;6.25;2.10;;;14.00;48.40;;;;;;2229226;56;22171;-66
2022/03/15 09:53:42;;;;;;;4.25;1.87;;;13.90;48.60;;;;;;2247933;56;21050;-65
2022/03/15 09:59:28;;;;;;;3.72;1.75;;;14.00;48.60;;;;;;2240992;56;21051;-64
2022/03/15 10:02:34;;;;;;;5.95;1.90;;;14.00;48.50;;;;;;2210710;57;21136;-64
2022/03/15 10:05:07;;;;;;;5.55;2.22;;;14.00;48.90;;;;;;2226218;56;20979;-66
2022/03/15 10:07:37;;;;;;;4.43;2.12;;;13.90;48.50;;;;;;2233698;56;21107;-64
2022/03/15 10:10:11;;;;;;;4.95;2.17;;;13.90;48.60;;;;;;2220563;57;20989;-65
2022/03/15 10:12:51;;;;;;;5.20;2.05;;;13.90;48.60;;;;;;2234586;56;21026;-66
2022/03/15 10:15:29;;;;;;;;;;;;;;;;;;;;;
2022/03/15 10:21:53;;;;;;;4.22;1.70;;;13.90;49.00;;;;;;2302936;57;21491;-65
2022/03/15 10:24:25;;;;;;;8.60;2.62;;;13.90;48.80;;;;;;2181888;58;21114;-66
2022/03/15 10:27:14;;;;;;;5.13;2.20;;;13.90;49.40;;;;;;2209691;56;21540;-67
2022/03/15 10:29:54;;;;;;;4.35;2.20;;;13.90;49.00;;;;;;2186195;57;21022;-66
2022/03/15 10:32:21;;;;;;;5.93;2.22;;;13.90;49.00;;;;;;2190721;57;21072;-65
2022/03/15 11:04:28;;;;;;;3.90;1.85;;;13.90;49.10;;;;;;2246998;56;21032;-67
2022/03/15 12:07:04;;;;;;;2.87;1.20;;;14.50;49.10;;;;;;2147500;57;21048;-67
2022/03/15 12:13:37;;;;;;;3.62;1.75;;;14.50;49.60;;;;;;2157367;57;21772;-64
2022/03/15 12:17:00;;;;;;;4.20;2.08;;;14.50;49.50;;;;;;2133198;60;21008;-67
2022/03/15 12:20:16;;;;;;;5.15;2.05;;;14.50;49.60;;;;;;2132763;59;22048;-64
2022/03/15 12:22:50;;;;;;;3.42;1.60;;;14.50;49.70;;;;;;2273326;56;21380;-64
2022/03/15 12:25:47;;;;;;;;;;;;;;;;;;;;;
2022/03/15 12:28:33;;;;;;;4.60;1.80;;;14.50;49.70;;;;;;2208073;57;20962;-68
2022/03/15 12:31:07;;;;;;;3.55;1.65;;;14.50;49.60;;;;;;2212144;57;20999;-67
2022/03/15 12:33:37;;;;;;;5.30;2.05;;;14.50;49.60;;;;;;2208219;57;20995;-67
2022/03/15 12:36:41;;;;;;;5.10;2.35;;;14.50;49.70;;;;;;2192432;57;21055;-64
2022/03/15 12:39:14;;;;;;;5.78;2.17;;;14.60;50.30;;;;;;2205750;57;21043;-66
2022/03/15 12:41:46;;;;;;;3.50;1.90;;;14.50;49.70;;;;;;2247458;57;21027;-66
2022/03/15 12:52:39;;;;;;;3.22;1.40;;;14.50;50.00;;;;;;2342681;55;21045;-67
2022/03/15 12:55:07;;;;;;;4.65;2.37;;;14.50;49.80;;;;;;2255800;55;20997;-65
2022/03/15 12:57:36;;;;;;;7.70;3.30;;;14.40;49.80;;;;;;2231978;55;21085;-65
2022/03/15 13:00:09;;;;;;;5.75;2.85;;;14.40;50.00;;;;;;2222784;55;20982;-68
2022/03/15 13:02:46;;;;;;;;;;;;;;;;;;;;;
2022/03/15 13:05:30;;;;;;;6.57;2.87;;;14.40;50.20;;;;;;2223064;56;21091;-68
2022/03/15 13:08:03;;;;;;;7.57;3.53;;;14.40;50.30;;;;;;2289569;55;21006;-66
2022/03/15 13:10:42;;;;;;;5.70;3.20;;;14.40;50.40;;;;;;2195906;55;21027;-66
2022/03/15 13:13:30;;;;;;;4.80;2.65;;;14.40;50.60;;;;;;2298742;56;20972;-64
2022/03/15 13:16:34;;;;;;;5.70;2.42;;;14.40;51.20;;;;;;2280946;56;21516;-65
2022/03/15 13:23:00;;;;;;;2.95;1.37;;;14.50;51.20;;;;;;2454555;56;21031;-68
2022/03/15 13:25:58;;;;;;;3.92;1.67;;;14.50;51.20;;;;;;2285042;56;21121;-66
2022/03/15 13:28:44;;;;;;;4.32;1.65;;;14.50;51.00;;;;;;2227459;56;21297;-66
2022/03/15 13:44:38;;;;;;;3.45;1.42;;;14.50;50.80;;;;;;2243859;55;21024;-64
2022/03/15 13:52:34;;;;;;;3.00;1.15;;;14.60;50.40;;;;;;2242621;55;21001;-65
2022/03/15 13:55:51;;;;;;;3.62;1.45;;;14.60;50.60;;;;;;2268284;55;21414;-67
2022/03/15 13:58:33;;;;;;;4.15;1.50;;;14.70;50.90;;;;;;2228589;55;20948;-69
2022/03/15 14:01:19;;;;;;;4.40;1.52;;;14.70;51.10;;;;;;2237164;55;20964;-65
2022/03/15 14:04:09;;;;;;;3.67;1.52;;;14.70;51.30;;;;;;2230969;55;21106;-66
2022/03/15 14:10:14;;;;;;;;;;;;;;;;;;;;;
2022/03/15 14:15:14;;;;;;;3.45;1.60;;;14.80;51.80;;;;;;2253876;55;21000;-65
2022/03/15 14:18:42;;;;;;;4.65;1.30;;;14.90;51.10;;;;;;2267418;56;21110;-68
2022/03/15 14:22:05;;;;;;;4.47;1.70;;;15.00;51.40;;;;;;2270582;56;21016;-67
2022/03/15 14:24:37;;;;;;;3.90;1.50;;;15.00;51.30;;;;;;2270405;56;21020;-67
2022/03/15 14:27:39;;;;;;;2.62;1.30;;;15.00;51.10;;;;;;2249103;55;21029;-66
2022/03/15 14:30:13;;;;;;;4.62;1.50;;;15.10;51.20;;;;;;2243072;55;20999;-69
2022/03/15 14:33:02;;;;;;;3.05;1.50;;;15.10;51.20;;;;;;2230312;56;21078;-67
2022/03/15 14:35:32;;;;;;;3.95;1.83;;;15.20;51.20;;;;;;2246230;56;21063;-66
2022/03/15 14:38:10;;;;;;;4.07;1.70;;;15.20;51.30;;;;;;2375706;54;21059;-67
2022/03/15 14:40:54;;;;;;;3.90;1.80;;;15.30;51.30;;;;;;2243778;56;21011;-69
2022/03/15 14:50:59;;;;;;;8.82;4.22;;;15.30;51.40;;;;;;2281574;55;21134;-66
2022/03/15 15:06:23;;;;;;;3.33;1.58;;;15.60;51.20;;;;;;2233806;56;20994;-68
2022/03/15 15:09:16;;;;;;;3.20;1.58;;;15.80;50.40;;;;;;2312353;56;21089;-68
2022/03/15 15:11:46;;;;;;;3.58;1.37;;;15.70;50.10;;;;;;2240456;55;21018;-65
2022/03/15 15:14:44;;;;;;;;;;;;;;;;;;;;;
2022/03/15 15:17:15;;;;;;;3.47;1.65;;;15.70;50.50;;;;;;2225153;56;21058;-68
2022/03/15 15:20:15;;;;;;;3.10;1.33;;;15.70;50.30;;;;;;2241093;56;20973;-68
2022/03/15 15:23:10;;;;;;;4.37;1.50;;;15.70;50.60;;;;;;2259992;56;21045;-68
2022/03/15 15:26:31;;;;;;;3.20;1.50;;;15.70;50.50;;;;;;2309080;56;21030;-69
2022/03/15 15:29:45;;;;;;;4.28;1.92;;;15.70;50.50;;;;;;2266498;55;20986;-65
2022/03/15 15:32:15;;;;;;;4.45;1.60;;;15.70;50.40;;;;;;2266737;55;20954;-68
2022/03/15 15:34:52;;;;;;;5.28;1.80;;;15.70;50.30;;;;;;2266153;55;21732;-68
2022/03/15 15:37:51;;;;;;;4.47;2.00;;;15.70;50.30;;;;;;2251557;57;21004;-68
2022/03/15 15:40:21;;;;;;;5.18;1.60;;;15.70;50.50;;;;;;2253244;56;21038;-66
2022/03/15 15:42:52;;;;;;;3.45;1.45;;;15.70;50.30;;;;;;2231721;56;21010;-68
2022/03/15 15:48:46;;;;;;;4.97;1.40;;;15.70;50.30;;;;;;2257382;56;21779;-66
2022/03/15 15:51:40;;;;;;;2.78;1.20;;;15.70;50.40;;;;;;2254342;55;21033;-66
2022/03/15 15:54:38;;;;;;;2.72;1.00;;;15.70;50.20;;;;;;2173077;57;21100;-69
2022/03/15 15:57:24;;;;;;;3.08;1.23;;;15.60;50.10;;;;;;2163983;58;21013;-66
2022/03/15 15:59:58;;;;;;;3.85;1.23;;;15.60;50.30;;;;;;2256066;55;21003;-67
2022/03/15 16:03:14;;;;;;;2.37;1.15;;;15.60;50.40;;;;;;2268369;55;21090;-66
2022/03/15 16:05:59;;;;;;;2.47;1.10;;;15.60;50.60;;;;;;2286978;55;20971;-65
2022/03/15 16:12:16;;;;;;;4.15;1.30;;;15.60;50.70;;;;;;2333625;54;21032;-69
2022/03/15 16:15:05;;;;;;;3.42;1.35;;;15.50;50.50;;;;;;2273052;55;20993;-68
2022/03/15 16:19:22;;;;;;;3.37;1.58;;;15.50;50.60;;;;;;2306489;56;21063;-65
2022/03/15 16:25:08;;;;;;;5.03;1.67;;;15.40;50.50;;;;;;2274772;55;21033;-66
2022/03/15 16:27:38;;;;;;;4.55;1.90;;;15.50;50.60;;;;;;2282778;55;21232;-68
2022/03/15 16:30:21;;;;;;;3.67;1.73;;;15.40;50.50;;;;;;2312921;55;21142;-67
2022/03/15 16:33:33;;;;;;;;;;;;;;;;;;;;;
2022/03/15 16:36:42;;;;;;;4.93;2.10;;;15.40;50.60;;;;;;2278121;55;20952;-68
2022/03/15 16:39:39;;;;;;;5.25;2.47;;;15.40;50.50;;;;;;2284331;55;21064;-68
2022/03/15 17:21:15;;;;;;;3.08;1.10;;;15.30;50.80;;;;;;2289297;55;21022;-65
2022/03/15 17:24:39;;;;;;;4.00;1.42;;;15.10;50.20;;;;;;2264596;56;21016;-65
2022/03/15 17:27:49;;;;;;;4.65;1.60;;;15.10;50.40;;;;;;2274444;55;20970;-65
2022/03/15 17:30:22;;;;;;;4.72;1.55;;;15.10;50.50;;;;;;2251623;55;21000;-65
2022/03/15 17:33:13;;;;;;;5.28;2.00;;;15.10;50.60;;;;;;2262187;56;20964;-66
2022/03/15 17:35:41;;;;;;;4.10;2.05;;;15.10;50.70;;;;;;2362280;55;20944;-68
2022/03/15 17:38:34;;;;;;;14.27;2.83;;;15.20;50.70;;;;;;2267089;55;20982;-67
2022/03/15 17:41:05;;;;;;;4.82;2.20;;;15.10;51.00;;;;;;2273881;55;21000;-70
2022/03/15 17:45:10;;;;;;;4.03;2.00;;;15.10;51.70;;;;;;2280889;55;20977;-68
2022/03/15 17:51:31;;;;;;;6.22;1.83;;;14.90;52.70;;;;;;2234762;56;21007;-69
2022/03/15 18:07:08;;;;;;;4.00;1.60;;;14.80;52.80;;;;;;2278622;55;21046;-68
2022/03/15 18:09:58;;;;;;;3.62;1.40;;;14.50;52.10;;;;;;2287494;55;21016;-66
2022/03/15 18:12:38;;;;;;;4.47;1.92;;;14.40;51.80;;;;;;2307504;55;21007;-66
2022/03/15 18:53:17;;;;;;;4.62;1.62;;;14.10;52.70;;;;;;2272801;56;21010;-67
2022/03/15 18:57:07;;;;;;;5.72;1.73;;;14.10;52.50;;;;;;2266618;56;20976;-67
2022/03/15 18:59:34;;;;;;;3.87;1.70;;;14.10;53.20;;;;;;2248667;56;21010;-67
2022/03/15 19:02:10;;;;;;;6.10;2.22;;;14.10;52.90;;;;;;2272430;55;20962;-67
2022/03/15 19:04:40;;;;;;;7.80;2.67;;;14.10;53.20;;;;;;2306244;55;21382;-66
2022/03/15 19:07:28;;;;;;;8.90;2.75;;;14.10;53.40;;;;;;2292115;55;21125;-66
2022/03/15 19:17:01;;;;;;;6.90;2.15;;;14.10;53.60;;;;;;2265780;56;21157;-66
2022/03/15 19:20:18;;;;;;;11.52;3.25;;;14.20;53.20;;;;;;2246851;56;21747;-66
2022/03/15 19:22:55;;;;;;;8.60;2.83;;;14.20;53.60;;;;;;2257917;55;21565;-66
2022/03/15 19:25:58;;;;;;;12.82;2.40;;;14.30;53.50;;;;;;2257028;56;20949;-66
2022/03/15 19:32:22;;;;;;;6.85;2.45;;;14.30;53.90;;;;;;2265220;59;21674;-67
2022/03/15 19:42:30;;;;;;;12.02;6.45;;;14.40;53.90;;;;;;2274589;59;21025;-67
2022/03/15 19:48:43;;;;;;;11.82;6.50;;;14.40;54.10;;;;;;2299807;57;22267;-67
2022/03/15 19:51:22;;;;;;;12.93;6.47;;;14.40;54.20;;;;;;2242412;56;21919;-66
2022/03/15 19:53:57;;;;;;;13.18;6.32;;;14.30;53.90;;;;;;2256027;55;21015;-66
2022/03/15 20:01:11;;;;;;;10.35;5.80;;;14.30;54.20;;;;;;2213803;61;21376;-66
2022/03/15 20:19:04;;;;;;;10.45;4.28;;;14.20;54.00;;;;;;2335420;57;21062;-67
2022/03/15 20:25:18;;;;;;;4.53;1.85;;;14.00;53.70;;;;;;2122076;60;21113;-66
2022/03/15 20:32:01;;;;;;;5.03;2.35;;;13.90;54.00;;;;;;2142002;59;21083;-66
2022/03/15 20:34:59;;;;;;;5.97;2.50;;;13.80;54.10;;;;;;2257500;56;21177;-66
2022/03/15 20:37:44;;;;;;;4.47;2.17;;;13.80;54.00;;;;;;2296865;55;21035;-66
2022/03/15 20:40:25;;;;;;;5.72;2.87;;;13.70;54.20;;;;;;2286717;56;21035;-66
2022/03/15 20:46:19;;;;;;;8.30;2.80;;;13.60;54.20;;;;;;2260665;55;21031;-66
2022/03/15 23:24:47;;;;;;;9.68;3.22;;;12.20;54.50;;;;;;2392707;53;20942;-66
2022/03/15 23:27:28;;;;;;;6.50;3.42;;;12.10;54.50;;;;;;2304094;52;21034;-67
2022/03/15 23:31:28;;;;;;;9.10;4.25;;;12.10;54.60;;;;;;2455841;53;20971;-67
2022/03/15 23:33:55;;;;;;;7.28;4.05;;;12.00;55.00;;;;;;2334085;54;20955;-66
2022/03/15 23:36:42;;;;;;;7.53;3.72;;;11.90;54.30;;;;;;2313083;54;20961;-66
2022/03/15 23:39:14;;;;;;;10.95;3.25;;;11.90;54.50;;;;;;2310517;54;20945;-65
2022/03/15 23:41:44;;;;;;;6.57;3.33;;;11.90;54.60;;;;;;2310501;54;20948;-66
2022/03/15 23:44:35;;;;;;;7.50;3.40;;;11.80;54.60;;;;;;2303261;54;20999;-66
2022/03/15 23:47:04;;;;;;;5.85;3.15;;;11.80;54.70;;;;;;2303395;54;21012;-66
2022/03/15 23:56:26;;;;;;;5.22;2.85;;;11.70;55.10;;;;;;2331373;54;20973;-66
2022/03/15 23:58:56;;;;;;;6.07;2.75;;;11.60;54.80;;;;;;2404600;53;20945;-66
